createdAt,value
2023-02-06T00:02:56.211Z,57.35
2023-02-06T00:07:58.283Z,57.04
2023-02-06T00:13:00.861Z,57.10
2023-02-06T00:18:02.922Z,56.19
2023-02-06T00:23:05.407Z,56.66
2023-02-06T00:28:07.551Z,56.61
2023-02-06T00:33:09.542Z,56.08
2023-02-06T00:38:11.885Z,55.21
2023-02-06T00:43:14.112Z,56.38
2023-02-06T00:48:16.836Z,56.30
2023-02-06T00:53:19.310Z,56.17
2023-02-06T00:58:21.472Z,56.03
2023-02-06T01:03:23.519Z,55.76
2023-02-06T01:08:25.592Z,55.26
2023-02-06T01:13:27.692Z,55.86
2023-02-06T01:18:30.123Z,55.14
2023-02-06T01:23:32.344Z,55.14
2023-02-06T01:28:38.508Z,54.18
2023-02-06T01:33:41.427Z,54.50
2023-02-06T01:38:44.970Z,54.50
2023-02-06T01:44:07.563Z,54.42
2023-02-06T01:49:16.408Z,54.34
2023-02-06T01:54:18.900Z,54.15
2023-02-06T01:59:22.371Z,53.48
2023-02-06T02:04:28.497Z,53.23
2023-02-06T02:09:31.071Z,53.48
2023-02-06T02:14:33.716Z,53.69
2023-02-06T02:19:59.822Z,53.07
2023-02-06T02:25:39.779Z,53.42
2023-02-06T02:30:47.975Z,53.14
2023-02-06T02:36:03.860Z,53.43
2023-02-06T02:41:26.726Z,53.49
2023-02-06T02:46:41.708Z,54.30
2023-02-06T02:51:46.478Z,54.36
2023-02-06T02:56:48.720Z,54.82
2023-02-06T03:02:10.284Z,54.73
2023-02-06T03:07:32.522Z,55.18
2023-02-06T03:12:37.355Z,55.14
2023-02-06T03:17:47.373Z,54.12
2023-02-06T03:22:51.391Z,54.61
2023-02-06T03:27:54.892Z,54.44
2023-02-06T03:33:04.476Z,54.33
2023-02-06T03:38:08.677Z,54.34
2023-02-06T03:43:18.892Z,54.12
2023-02-06T03:48:30.237Z,54.13
2023-02-06T03:53:34.955Z,54.58
2023-02-06T03:58:37.361Z,55.37
2023-02-06T04:03:39.609Z,55.71
2023-02-06T04:08:41.786Z,54.75
2023-02-06T04:13:43.969Z,54.09
2023-02-06T04:18:46.128Z,54.17
2023-02-06T04:23:48.501Z,54.12
2023-02-06T04:28:50.753Z,54.66
2023-02-06T04:33:52.891Z,54.84
2023-02-06T04:38:55.082Z,54.67
2023-02-06T04:43:57.302Z,54.24
2023-02-06T04:48:59.454Z,54.56
2023-02-06T04:54:02.285Z,54.32
2023-02-06T04:59:04.536Z,53.76
2023-02-06T05:04:06.892Z,54.60
2023-02-06T05:09:10.023Z,55.47
2023-02-06T05:14:12.241Z,55.48
2023-02-06T05:19:14.563Z,54.83
2023-02-06T05:24:16.757Z,54.43
2023-02-06T05:29:18.961Z,54.22
2023-02-06T05:34:21.087Z,54.05
2023-02-06T05:39:23.264Z,53.65
2023-02-06T05:44:25.412Z,54.53
2023-02-06T05:49:27.511Z,55.24
2023-02-06T05:54:29.645Z,55.62
2023-02-06T05:59:32.078Z,55.29
2023-02-06T06:04:34.323Z,54.80
2023-02-06T06:09:36.570Z,55.33
2023-02-06T06:14:38.819Z,55.31
2023-02-06T06:19:41.030Z,55.92
2023-02-06T06:24:43.127Z,56.64
2023-02-06T06:29:45.363Z,56.83
2023-02-06T06:34:47.546Z,56.35
2023-02-06T06:39:49.749Z,56.33
2023-02-06T06:44:51.978Z,56.00
2023-02-06T06:49:54.154Z,56.80
2023-02-06T06:54:56.387Z,57.83
2023-02-06T06:59:58.551Z,58.54
2023-02-06T07:05:00.804Z,58.24
2023-02-06T07:10:09.621Z,57.70
2023-02-06T07:15:18.464Z,58.03
2023-02-06T07:20:20.838Z,58.24
2023-02-06T07:25:23.864Z,58.06
2023-02-06T07:30:26.139Z,59.42
2023-02-06T07:35:28.300Z,59.93
2023-02-06T07:40:43.213Z,59.78
2023-02-06T07:45:46.763Z,59.63
2023-02-06T07:50:49.028Z,60.31
2023-02-06T07:55:51.357Z,60.95
2023-02-06T08:00:55.056Z,61.07
2023-02-06T08:05:57.643Z,62.38
2023-02-06T08:10:59.783Z,63.51
2023-02-06T08:16:11.897Z,63.96
2023-02-06T08:21:18.342Z,62.50
2023-02-06T08:26:21.898Z,62.43
2023-02-06T08:31:29.312Z,61.96
2023-02-06T08:36:32.235Z,61.59
2023-02-06T08:41:37.863Z,61.98
2023-02-06T08:46:41.220Z,62.83
2023-02-06T08:51:44.040Z,62.38
2023-02-06T08:56:46.923Z,62.14
2023-02-06T09:01:49.663Z,61.58
2023-02-06T09:06:52.423Z,61.75
2023-02-06T09:11:56.031Z,61.62
2023-02-06T09:16:58.565Z,62.62
2023-02-06T09:22:00.876Z,63.06
2023-02-06T09:27:03.162Z,62.96
2023-02-06T09:32:05.382Z,61.84
2023-02-06T09:37:07.680Z,61.64
2023-02-06T09:42:35.019Z,61.44
2023-02-06T09:47:46.440Z,61.36
2023-02-06T09:53:20.401Z,62.06
2023-02-06T09:58:50.168Z,63.20
2023-02-06T10:04:24.957Z,62.31
2023-02-06T10:09:44.056Z,60.75
2023-02-06T10:14:54.338Z,59.90
2023-02-06T10:20:00.173Z,59.50
2023-02-06T10:25:11.349Z,59.16
2023-02-06T10:30:20.005Z,59.50
2023-02-06T10:36:04.998Z,58.63
2023-02-06T10:41:36.364Z,58.79
2023-02-06T10:46:48.665Z,58.94
2023-02-06T10:52:01.502Z,58.46
2023-02-06T10:57:11.816Z,58.57
2023-02-06T11:02:27.590Z,57.64
2023-02-06T11:07:45.858Z,58.54
2023-02-06T11:12:52.155Z,58.18
2023-02-06T11:17:55.442Z,57.92
2023-02-06T11:23:13.501Z,58.30
2023-02-06T11:28:20.988Z,57.96
2023-02-06T11:33:49.516Z,57.79
2023-02-06T11:38:57.174Z,57.54
2023-02-06T11:44:06.673Z,57.52
2023-02-06T11:49:23.432Z,57.30
2023-02-06T11:54:30.950Z,57.59
2023-02-06T11:59:34.783Z,57.73
2023-02-06T12:04:40.016Z,57.36
2023-02-06T12:09:42.893Z,57.07
2023-02-06T12:15:43.593Z,56.88
2023-02-06T12:20:52.127Z,57.09
2023-02-06T12:26:02.122Z,57.53
2023-02-06T12:31:32.454Z,57.33
2023-02-06T12:36:47.982Z,57.13
2023-02-06T12:41:50.146Z,57.09
2023-02-06T12:46:59.500Z,56.61
2023-02-06T12:52:12.114Z,56.85
2023-02-06T12:57:25.517Z,56.80
2023-02-06T13:03:05.368Z,57.16
2023-02-06T13:08:17.007Z,57.20
2023-02-06T13:13:31.938Z,57.14
2023-02-06T13:18:52.779Z,56.73
2023-02-06T13:24:16.278Z,56.65
2023-02-06T13:29:25.486Z,56.46
2023-02-06T13:34:27.721Z,56.84
2023-02-06T13:39:32.747Z,56.93
2023-02-06T13:44:38.684Z,56.72
2023-02-06T13:50:02.613Z,56.62
2023-02-06T13:55:25.316Z,56.66
2023-02-06T14:00:33.363Z,56.34
2023-02-06T14:05:46.300Z,56.38
2023-02-06T14:11:23.396Z,56.87
2023-02-06T14:16:37.532Z,57.05
2023-02-06T14:22:04.499Z,57.05
2023-02-06T14:27:06.608Z,57.02
2023-02-06T14:32:24.297Z,56.68
2023-02-06T14:38:03.809Z,56.58
2023-02-06T14:43:11.241Z,56.55
2023-02-06T14:48:31.941Z,56.72
2023-02-06T14:53:39.626Z,56.69
2023-02-06T14:58:46.453Z,56.88
2023-02-06T15:03:52.736Z,56.77
2023-02-06T15:08:55.153Z,56.49
2023-02-06T15:13:57.280Z,56.43
2023-02-06T15:19:23.947Z,56.36
2023-02-06T15:24:47.271Z,56.74
2023-02-06T15:29:50.923Z,56.86
2023-02-06T15:34:53.460Z,56.51
2023-02-06T15:39:58.164Z,56.43
2023-02-06T15:45:01.144Z,56.46
2023-02-06T15:50:10.452Z,56.43
2023-02-06T15:55:31.534Z,56.43
2023-02-06T16:00:36.628Z,56.68
2023-02-06T16:05:41.311Z,56.60
2023-02-06T16:10:53.095Z,56.74
2023-02-06T16:16:17.155Z,56.52
2023-02-06T16:21:19.473Z,56.42
2023-02-06T16:26:23.014Z,56.59
2023-02-06T16:31:27.673Z,56.10
2023-02-06T16:36:32.198Z,56.38
2023-02-06T16:41:37.653Z,56.74
2023-02-06T16:46:39.841Z,56.63
2023-02-06T16:51:44.061Z,56.47
2023-02-06T16:56:46.944Z,56.25
2023-02-06T17:01:49.183Z,56.33
2023-02-06T17:06:52.325Z,56.36
2023-02-06T17:11:54.496Z,56.78
2023-02-06T17:16:56.669Z,56.53
2023-02-06T17:21:59.002Z,56.75
2023-02-06T17:27:01.767Z,56.62
2023-02-06T17:32:05.569Z,56.46
2023-02-06T17:37:08.372Z,56.61
2023-02-06T17:42:10.575Z,56.40
2023-02-06T17:47:12.765Z,56.63
2023-02-06T17:52:15.020Z,56.54
2023-02-06T17:57:17.233Z,56.71
2023-02-06T18:02:19.438Z,56.38
2023-02-06T18:07:21.995Z,56.36
2023-02-06T18:12:24.635Z,56.45
2023-02-06T18:17:27.055Z,56.54
2023-02-06T18:22:29.245Z,56.41
2023-02-06T18:27:33.058Z,56.56
2023-02-06T18:32:37.794Z,56.60
2023-02-06T18:37:39.953Z,56.06
2023-02-06T18:42:51.014Z,56.20
2023-02-06T18:47:53.169Z,55.83
2023-02-06T18:52:55.757Z,55.82
2023-02-06T18:57:57.962Z,55.77
2023-02-06T19:03:00.636Z,55.98
2023-02-06T19:08:02.847Z,56.32
2023-02-06T19:13:05.954Z,56.03
2023-02-06T19:18:09.234Z,56.14
2023-02-06T19:23:11.323Z,56.35
2023-02-06T19:28:13.552Z,56.25
2023-02-06T19:33:16.261Z,55.99
2023-02-06T19:38:18.450Z,56.19
2023-02-06T19:43:20.793Z,56.06
2023-02-06T19:48:22.997Z,56.09
2023-02-06T19:53:25.217Z,55.91
2023-02-06T19:58:31.091Z,55.70
2023-02-06T20:03:33.481Z,55.82
2023-02-06T20:08:35.616Z,56.08
2023-02-06T20:13:37.869Z,55.98
2023-02-06T20:18:39.982Z,56.49
2023-02-06T20:23:43.086Z,56.10
2023-02-06T20:28:45.792Z,56.14
2023-02-06T20:33:48.579Z,55.87
2023-02-06T20:38:53.815Z,56.03
2023-02-06T20:43:57.668Z,55.64
2023-02-06T20:49:02.548Z,56.12
2023-02-06T20:54:05.486Z,56.25
2023-02-06T20:59:08.804Z,55.84
2023-02-06T21:04:13.122Z,55.84
2023-02-06T21:09:15.318Z,55.48
2023-02-06T21:14:18.398Z,55.54
2023-02-06T21:19:21.053Z,55.81
2023-02-06T21:24:23.409Z,55.91
2023-02-06T21:29:25.691Z,56.38
2023-02-06T21:34:27.862Z,56.28
2023-02-06T21:39:30.726Z,55.69
2023-02-06T21:44:33.204Z,55.54
2023-02-06T21:49:35.613Z,55.58
2023-02-06T21:54:38.116Z,55.84
2023-02-06T21:59:41.181Z,55.88
2023-02-06T22:04:43.327Z,55.95
2023-02-06T22:09:45.443Z,55.82
2023-02-06T22:14:47.504Z,55.95
2023-02-06T22:19:50.590Z,56.04
2023-02-06T22:24:53.266Z,56.07
2023-02-06T22:29:55.423Z,56.01
2023-02-06T22:35:01.016Z,55.72
2023-02-06T22:40:03.727Z,56.06
2023-02-06T22:45:06.783Z,55.88
2023-02-06T22:50:09.211Z,55.73
2023-02-06T22:55:11.534Z,56.01
2023-02-06T23:00:15.017Z,56.03
2023-02-06T23:05:17.387Z,55.92
2023-02-06T23:10:19.711Z,56.28
2023-02-06T23:15:21.900Z,56.26
2023-02-06T23:20:24.119Z,56.32
2023-02-06T23:25:26.352Z,56.39
2023-02-06T23:30:28.636Z,56.37
2023-02-06T23:35:34.922Z,56.23
2023-02-06T23:40:38.449Z,55.83
2023-02-06T23:45:41.654Z,55.96
2023-02-06T23:50:43.997Z,56.17
2023-02-06T23:55:46.270Z,56.02
